createdAt,value
2018-06-04T00:03:19.234Z,2.42
2018-06-04T00:05:46.286Z,1.87
2018-06-04T00:08:14.110Z,1.93
2018-06-04T00:10:41.102Z,2.23
2018-06-04T00:13:08.144Z,1.90
2018-06-04T00:15:35.159Z,2.00
2018-06-04T00:18:02.190Z,2.30
2018-06-04T00:20:30.060Z,2.27
2018-06-04T00:22:57.060Z,2.57
2018-06-04T00:25:24.049Z,2.17
2018-06-04T00:27:51.090Z,2.30
2018-06-04T00:30:18.094Z,2.53
2018-06-04T00:32:45.095Z,2.20
2018-06-04T00:35:12.231Z,2.63
2018-06-04T00:37:39.239Z,1.93
2018-06-04T00:40:06.255Z,2.30
2018-06-04T00:42:33.294Z,2.23
2018-06-04T00:45:00.289Z,2.20
2018-06-04T00:47:27.301Z,2.37
2018-06-04T00:49:54.345Z,2.33
2018-06-04T00:52:21.345Z,2.00
2018-06-04T00:54:48.330Z,2.67
2018-06-04T00:57:16.077Z,2.40
2018-06-04T00:59:43.073Z,2.43
2018-06-04T01:02:10.079Z,2.10
2018-06-04T01:04:37.121Z,2.37
2018-06-04T01:07:04.209Z,2.43
2018-06-04T01:09:31.979Z,2.60
2018-06-04T01:11:59.024Z,2.63
2018-06-04T01:14:26.028Z,2.27
2018-06-04T01:16:53.861Z,2.60
2018-06-04T01:19:20.923Z,2.67
2018-06-04T01:24:26.430Z,2.80
2018-06-04T01:26:53.465Z,2.50
2018-06-04T01:29:20.473Z,2.70
2018-06-04T01:31:48.985Z,2.43
2018-06-04T01:34:15.983Z,2.57
2018-06-04T01:36:42.989Z,2.43
2018-06-04T01:39:10.035Z,2.37
2018-06-04T01:41:37.036Z,2.50
2018-06-04T01:44:04.138Z,2.07
2018-06-04T01:46:31.064Z,2.80
2018-06-04T01:48:58.070Z,2.60
2018-06-04T01:51:25.180Z,2.40
2018-06-04T01:53:54.171Z,2.50
2018-06-04T01:56:21.171Z,2.20
2018-06-04T01:58:48.168Z,2.30
2018-06-04T02:01:15.195Z,2.30
2018-06-04T02:03:42.197Z,2.63
2018-06-04T02:06:10.146Z,2.57
2018-06-04T02:08:37.190Z,3.00
2018-06-04T02:11:04.200Z,2.30
2018-06-04T02:13:31.196Z,2.00
2018-06-04T02:15:58.401Z,2.60
2018-06-04T02:18:25.334Z,2.40
2018-06-04T02:20:52.329Z,2.50
2018-06-04T02:23:19.356Z,2.80
2018-06-04T02:25:46.369Z,2.67
2018-06-04T02:30:52.834Z,2.85
2018-06-04T02:33:19.834Z,2.57
2018-06-04T02:35:48.550Z,2.50
2018-06-04T02:38:15.601Z,2.43
2018-06-04T02:40:42.597Z,2.50
2018-06-04T02:43:09.606Z,2.80
2018-06-04T02:45:36.634Z,2.23
2018-06-04T02:48:03.652Z,2.60
2018-06-04T02:50:30.650Z,2.70
2018-06-04T02:52:57.710Z,2.93
2018-06-04T02:55:24.715Z,2.60
2018-06-04T02:57:54.542Z,2.80
2018-06-04T03:00:18.737Z,3.33
2018-06-04T03:02:46.086Z,2.73
2018-06-04T03:05:13.083Z,3.23
2018-06-04T03:07:40.107Z,2.93
2018-06-04T03:10:07.112Z,3.17
2018-06-04T03:12:34.096Z,2.80
2018-06-04T03:15:01.138Z,3.07
2018-06-04T03:17:28.133Z,3.20
2018-06-04T03:19:56.037Z,3.23
2018-06-04T03:22:23.058Z,3.53
2018-06-04T03:24:50.058Z,3.53
2018-06-04T03:27:17.055Z,3.23
2018-06-04T03:29:44.103Z,2.90
2018-06-04T03:32:11.086Z,3.17
2018-06-04T03:34:38.079Z,3.40
2018-06-04T03:37:05.123Z,3.07
2018-06-04T03:39:32.116Z,2.70
2018-06-04T03:41:59.111Z,2.90
2018-06-04T03:47:06.622Z,3.20
2018-06-04T03:49:33.680Z,2.53
2018-06-04T03:52:01.673Z,2.77
2018-06-04T03:54:28.660Z,2.43
2018-06-04T03:56:55.703Z,2.40
2018-06-04T03:59:22.708Z,2.70
2018-06-04T04:01:49.739Z,2.87
2018-06-04T04:04:16.789Z,3.03
2018-06-04T04:06:43.784Z,2.90
2018-06-04T04:09:10.798Z,2.53
2018-06-04T04:11:37.823Z,3.10
2018-06-04T04:14:05.367Z,2.90
2018-06-04T04:16:33.433Z,3.23
2018-06-04T04:19:00.477Z,3.30
2018-06-04T04:21:27.487Z,2.97
2018-06-04T04:23:55.251Z,3.60
2018-06-04T04:26:22.281Z,3.50
2018-06-04T04:28:49.277Z,2.90
2018-06-04T04:31:16.273Z,3.57
2018-06-04T04:33:43.313Z,3.33
2018-06-04T04:36:10.474Z,3.03
2018-06-04T04:38:37.491Z,3.00
2018-06-04T04:41:04.531Z,3.33
2018-06-04T04:43:31.547Z,3.40
2018-06-04T04:45:58.554Z,3.30
2018-06-04T04:48:25.589Z,3.37
2018-06-04T04:53:32.722Z,3.50
2018-06-04T04:55:59.717Z,3.00
2018-06-04T04:58:27.114Z,3.67
2018-06-04T05:00:56.132Z,3.27
2018-06-04T05:03:23.148Z,3.83
2018-06-04T05:05:50.139Z,3.83
2018-06-04T05:08:17.202Z,3.60
2018-06-04T05:10:44.490Z,3.27
2018-06-04T05:13:11.574Z,3.30
2018-06-04T05:15:38.630Z,3.70
2018-06-04T05:18:05.631Z,3.67
2018-06-04T05:20:33.446Z,3.87
2018-06-04T05:23:00.480Z,3.83
2018-06-04T05:25:28.352Z,4.20
2018-06-04T05:27:55.425Z,3.93
2018-06-04T05:30:22.468Z,4.53
2018-06-04T05:32:49.466Z,4.50
2018-06-04T05:35:16.468Z,4.97
2018-06-04T05:37:43.528Z,3.80
2018-06-04T05:40:10.511Z,4.43
2018-06-04T05:42:38.366Z,4.23
2018-06-04T05:45:05.404Z,3.97
2018-06-04T05:47:33.272Z,3.53
2018-06-04T05:50:01.308Z,4.50
2018-06-04T05:52:28.293Z,4.03
2018-06-04T05:54:55.292Z,4.00
2018-06-04T05:57:22.297Z,3.47
2018-06-04T05:59:50.361Z,3.73
2018-06-04T06:02:18.145Z,3.67
2018-06-04T06:04:46.106Z,3.73
2018-06-04T06:07:13.975Z,4.67
2018-06-04T06:09:40.978Z,4.37
2018-06-04T06:12:08.069Z,4.17
2018-06-04T06:14:35.218Z,4.40
2018-06-04T06:19:41.017Z,3.62
2018-06-04T06:22:08.027Z,3.67
2018-06-04T06:24:35.900Z,3.60
2018-06-04T06:27:02.933Z,3.70
2018-06-04T06:29:29.977Z,3.50
2018-06-04T06:31:56.975Z,2.70
2018-06-04T06:34:24.112Z,3.50
2018-06-04T06:36:51.212Z,2.90
2018-06-04T06:39:18.230Z,3.00
2018-06-04T06:41:45.279Z,2.67
2018-06-04T06:44:12.281Z,3.10
2018-06-04T06:46:39.452Z,3.07
2018-06-04T06:49:06.492Z,2.47
2018-06-04T06:51:35.580Z,3.13
2018-06-04T06:54:02.517Z,3.00
2018-06-04T06:56:32.496Z,3.00
2018-06-04T06:58:59.626Z,2.70
2018-06-04T07:01:27.966Z,2.80
2018-06-04T07:03:54.913Z,3.13
2018-06-04T07:06:21.981Z,3.03
2018-06-04T07:08:49.366Z,3.13
2018-06-04T07:13:54.576Z,3.53
2018-06-04T07:16:21.624Z,2.90
2018-06-04T07:18:49.055Z,3.13
2018-06-04T07:21:17.043Z,3.13
2018-06-04T07:23:44.712Z,3.27
2018-06-04T07:26:11.734Z,3.37
2018-06-04T07:28:39.718Z,2.83
2018-06-04T07:31:06.784Z,3.00
2018-06-04T07:33:33.842Z,3.27
2018-06-04T07:36:00.867Z,2.70
2018-06-04T07:38:28.689Z,3.17
2018-06-04T07:40:55.937Z,2.90
2018-06-04T07:43:22.944Z,2.37
2018-06-04T07:45:50.018Z,2.87
2018-06-04T07:48:17.058Z,2.20
2018-06-04T07:50:45.055Z,2.90
2018-06-04T07:53:12.127Z,2.90
2018-06-04T07:55:39.175Z,2.60
2018-06-04T07:58:06.214Z,2.60
2018-06-04T08:00:33.690Z,2.87
2018-06-04T08:03:00.738Z,2.50
2018-06-04T08:05:27.811Z,2.70
2018-06-04T08:07:54.901Z,2.70
2018-06-04T08:10:21.976Z,2.37
2018-06-04T08:12:48.985Z,2.80
2018-06-04T08:18:05.824Z,2.77
2018-06-04T08:20:34.921Z,3.00
2018-06-04T08:23:00.084Z,3.10
2018-06-04T08:25:29.112Z,3.20
2018-06-04T08:27:56.198Z,3.17
2018-06-04T08:30:24.394Z,2.80
2018-06-04T08:35:32.425Z,2.90
2018-06-04T08:46:10.587Z,3.33
2018-06-04T09:02:57.428Z,3.37
2018-06-04T09:08:08.103Z,3.33
2018-06-04T09:13:19.709Z,3.20
2018-06-04T09:15:47.782Z,3.10
2018-06-04T09:21:03.374Z,3.30
2018-06-04T09:26:24.974Z,3.40
2018-06-04T09:28:56.548Z,3.20
2018-06-04T09:31:28.676Z,3.27
2018-06-04T09:34:00.621Z,2.60
2018-06-04T09:41:55.035Z,3.37
2018-06-04T09:44:28.395Z,3.03
2018-06-04T09:47:11.324Z,3.50
2018-06-04T09:49:55.233Z,3.20
2018-06-04T09:52:25.000Z,3.50
2018-06-04T09:54:52.863Z,3.13
2018-06-04T09:57:20.686Z,3.87
2018-06-04T10:06:01.964Z,3.53
2018-06-04T10:08:30.708Z,3.37
2018-06-04T10:10:58.504Z,3.70
2018-06-04T10:13:26.281Z,3.30
2018-06-04T10:15:54.645Z,3.90
2018-06-04T10:18:21.685Z,3.47
2018-06-04T10:23:28.571Z,3.70
2018-06-04T10:25:56.715Z,3.50
2018-06-04T10:33:44.247Z,3.53
2018-06-04T10:36:13.510Z,3.30
2018-06-04T10:38:41.394Z,3.10
2018-06-04T10:41:09.404Z,3.17
2018-06-04T10:46:17.638Z,3.47
2018-06-04T10:48:44.741Z,3.57
2018-06-04T10:51:12.909Z,3.50
2018-06-04T10:56:21.859Z,3.23
2018-06-04T11:01:41.632Z,3.20
2018-06-04T11:04:09.623Z,3.00
2018-06-04T11:06:36.635Z,2.80
2018-06-04T11:09:03.783Z,3.10
2018-06-04T11:11:31.565Z,3.53
2018-06-04T11:13:58.635Z,3.10
2018-06-04T11:16:25.741Z,3.10
2018-06-04T11:21:31.825Z,3.03
2018-06-04T11:23:59.570Z,2.70
2018-06-04T11:26:26.611Z,3.00
2018-06-04T11:28:54.630Z,2.67
2018-06-04T11:34:02.494Z,2.53
2018-06-04T11:39:07.757Z,2.70
2018-06-04T11:41:34.775Z,2.00
2018-06-04T11:44:02.646Z,2.27
2018-06-04T11:46:29.701Z,2.03
2018-06-04T11:48:56.788Z,1.80
2018-06-04T11:51:24.760Z,2.13
2018-06-04T11:53:51.940Z,2.30
2018-06-04T11:56:19.017Z,2.00
2018-06-04T11:58:46.059Z,2.40
2018-06-04T12:01:14.416Z,2.30
2018-06-04T12:03:41.440Z,2.00
2018-06-04T12:06:10.016Z,2.00
2018-06-04T12:08:37.070Z,2.30
2018-06-04T12:11:04.100Z,2.20
2018-06-04T12:13:33.265Z,2.00
2018-06-04T12:16:01.166Z,2.27
2018-06-04T12:18:28.272Z,2.20
2018-06-04T12:20:55.423Z,2.37
2018-06-04T12:23:23.301Z,2.00
2018-06-04T12:25:50.357Z,2.30
2018-06-04T12:28:17.410Z,2.23
2018-06-04T12:30:44.486Z,2.43
2018-06-04T12:33:11.537Z,1.83
2018-06-04T12:35:39.537Z,1.80
2018-06-04T12:38:06.593Z,1.97
2018-06-04T12:40:33.628Z,1.63
2018-06-04T12:45:42.746Z,1.73
2018-06-04T12:48:09.789Z,1.67
2018-06-04T12:50:36.781Z,1.93
2018-06-04T12:53:04.703Z,1.80
2018-06-04T12:55:31.733Z,1.80
2018-06-04T12:57:58.813Z,1.90
2018-06-04T13:00:26.917Z,1.87
2018-06-04T13:02:53.949Z,1.53
2018-06-04T13:05:20.981Z,1.70
2018-06-04T13:07:49.874Z,1.63
2018-06-04T13:12:55.613Z,1.90
2018-06-04T13:15:23.544Z,1.67
2018-06-04T13:20:29.617Z,1.93
2018-06-04T13:22:56.717Z,2.43
2018-06-04T13:25:23.763Z,2.07
2018-06-04T13:27:50.844Z,1.77
2018-06-04T13:30:18.085Z,2.00
2018-06-04T13:32:45.922Z,1.80
2018-06-04T13:35:13.354Z,1.43
2018-06-04T13:37:41.209Z,1.67
2018-06-04T13:40:08.234Z,1.50
2018-06-04T13:42:36.243Z,1.80
2018-06-04T13:45:03.257Z,1.83
2018-06-04T13:47:30.407Z,2.27
2018-06-04T13:49:57.450Z,2.10
2018-06-04T13:52:24.493Z,1.87
2018-06-04T13:54:51.529Z,2.00
2018-06-04T13:57:19.329Z,2.00
2018-06-04T13:59:46.383Z,2.00
2018-06-04T14:02:13.419Z,2.07
2018-06-04T14:04:40.484Z,2.33
2018-06-04T14:07:07.555Z,2.10
2018-06-04T14:09:34.623Z,2.50
2018-06-04T14:12:01.697Z,2.13
2018-06-04T14:14:29.586Z,2.63
2018-06-04T14:16:56.643Z,2.37
2018-06-04T14:19:23.740Z,2.03
2018-06-04T14:21:50.770Z,2.03
2018-06-04T14:24:17.780Z,2.13
2018-06-04T14:26:44.842Z,2.20
2018-06-04T14:29:11.900Z,2.20
2018-06-04T14:31:38.974Z,2.30
2018-06-04T14:34:08.865Z,2.17
2018-06-04T14:36:35.894Z,2.43
2018-06-04T14:41:43.441Z,2.10
2018-06-04T14:44:10.465Z,2.27
2018-06-04T14:46:37.533Z,2.10
2018-06-04T14:49:04.586Z,2.50
2018-06-04T14:51:31.664Z,2.20
2018-06-04T14:53:58.689Z,1.97
2018-06-04T14:56:25.756Z,2.30
2018-06-04T14:58:53.737Z,2.10
2018-06-04T15:01:20.763Z,2.13
2018-06-04T15:03:47.829Z,2.40
2018-06-04T15:06:14.870Z,2.30
2018-06-04T15:08:41.933Z,2.70
2018-06-04T15:11:08.986Z,2.77
2018-06-04T15:16:14.218Z,2.40
2018-06-04T15:21:22.455Z,2.30
2018-06-04T15:23:49.475Z,2.40
2018-06-04T15:26:18.255Z,2.50
2018-06-04T15:28:45.332Z,2.00
2018-06-04T15:31:13.130Z,2.40
2018-06-04T15:33:40.159Z,2.30
2018-06-04T15:36:07.222Z,2.43
2018-06-04T15:38:34.271Z,2.20
2018-06-04T15:41:01.306Z,2.10
2018-06-04T15:43:28.478Z,2.13
2018-06-04T15:45:56.421Z,2.40
2018-06-04T15:48:23.455Z,1.97
2018-06-04T15:50:50.509Z,2.20
2018-06-04T15:53:17.685Z,1.80
2018-06-04T15:55:44.735Z,2.07
2018-06-04T15:58:11.800Z,1.90
2018-06-04T16:00:38.828Z,1.90
2018-06-04T16:03:05.876Z,1.90
2018-06-04T16:05:32.910Z,1.40
2018-06-04T16:07:59.931Z,1.73
2018-06-04T16:10:26.926Z,1.80
2018-06-04T16:12:53.975Z,1.93
2018-06-04T16:15:21.016Z,2.20
2018-06-04T16:17:48.543Z,2.00
2018-06-04T16:20:15.722Z,2.20
2018-06-04T16:22:42.788Z,2.33
2018-06-04T16:25:11.030Z,2.37
2018-06-04T16:27:39.076Z,2.43
2018-06-04T16:30:06.104Z,2.00
2018-06-04T16:35:12.459Z,2.20
2018-06-04T16:37:40.499Z,1.73
2018-06-04T16:40:10.326Z,1.57
2018-06-04T16:42:37.409Z,1.90
2018-06-04T16:45:04.451Z,2.07
2018-06-04T16:47:34.357Z,2.10
2018-06-04T16:58:23.322Z,1.70
2018-06-04T17:00:49.119Z,1.90
2018-06-04T17:03:16.203Z,1.70
2018-06-04T17:05:44.935Z,1.50
2018-06-04T17:08:12.061Z,1.20
2018-06-04T17:10:40.607Z,1.53
2018-06-04T17:13:07.673Z,1.40
2018-06-04T17:15:36.507Z,1.20
2018-06-04T17:18:03.636Z,0.87
2018-06-04T17:20:31.628Z,1.00
2018-06-04T17:22:58.675Z,0.80
2018-06-04T17:25:25.733Z,0.90
2018-06-04T17:27:53.711Z,1.00
2018-06-04T17:33:00.962Z,0.90
2018-06-04T17:35:29.007Z,1.03
2018-06-04T17:38:01.967Z,0.90
2018-06-04T17:40:31.366Z,0.97
2018-06-04T17:42:58.401Z,1.23
2018-06-04T17:45:26.383Z,0.90
2018-06-04T17:47:53.465Z,0.80
2018-06-04T17:52:57.664Z,1.10
2018-06-04T17:55:24.692Z,1.10
2018-06-04T17:57:51.734Z,0.97
2018-06-04T18:00:18.794Z,1.00
2018-06-04T18:02:46.642Z,1.07
2018-06-04T18:05:13.675Z,1.00
2018-06-04T18:07:40.715Z,0.73
2018-06-04T18:10:07.823Z,0.87
2018-06-04T18:12:35.799Z,0.80
2018-06-04T18:15:02.866Z,1.00
2018-06-04T18:17:29.895Z,0.80
2018-06-04T18:19:56.960Z,0.87
2018-06-04T18:22:23.945Z,0.90
2018-06-04T18:24:51.180Z,1.07
2018-06-04T18:27:18.410Z,1.00
2018-06-04T18:29:48.571Z,1.27
2018-06-04T18:32:15.773Z,0.80
2018-06-04T18:34:42.739Z,1.30
2018-06-04T18:37:09.789Z,0.77
2018-06-04T18:39:36.810Z,1.10
2018-06-04T18:42:03.789Z,1.40
2018-06-04T18:44:30.835Z,1.27
2018-06-04T18:46:57.872Z,1.60
2018-06-04T18:49:24.913Z,1.27
2018-06-04T18:51:51.940Z,1.50
2018-06-04T18:56:57.951Z,1.70
2018-06-04T18:59:26.414Z,1.50
2018-06-04T19:01:53.421Z,1.37
2018-06-04T19:07:30.280Z,1.20
2018-06-04T19:09:59.226Z,1.20
2018-06-04T19:12:27.990Z,1.30
2018-06-04T19:14:55.019Z,1.30
2018-06-04T19:17:22.058Z,1.50
2018-06-04T19:19:49.043Z,1.20
2018-06-04T19:22:16.055Z,1.43
2018-06-04T19:24:43.099Z,2.00
2018-06-04T19:27:13.975Z,1.97
2018-06-04T19:29:40.970Z,1.90
2018-06-04T19:32:07.993Z,2.03
2018-06-04T19:34:34.990Z,1.77
2018-06-04T19:37:02.013Z,1.70
2018-06-04T19:42:08.981Z,2.15
2018-06-04T19:44:36.026Z,1.83
2018-06-04T19:47:03.178Z,2.03
2018-06-04T19:49:30.135Z,1.73
2018-06-04T19:51:57.506Z,1.67
2018-06-04T19:54:24.311Z,1.90
2018-06-04T19:56:51.344Z,1.77
2018-06-04T20:02:00.067Z,1.90
2018-06-04T20:04:25.199Z,2.00
2018-06-04T20:06:53.599Z,1.83
2018-06-04T20:09:20.711Z,1.83
2018-06-04T20:11:47.765Z,1.97
2018-06-04T20:14:14.858Z,1.60
2018-06-04T20:16:41.877Z,1.27
2018-06-04T20:19:11.161Z,1.70
2018-06-04T20:21:46.004Z,1.70
2018-06-04T20:24:13.115Z,1.60
2018-06-04T20:26:40.202Z,1.70
2018-06-04T20:29:09.369Z,2.30
2018-06-04T20:31:36.434Z,1.73
2018-06-04T20:34:06.634Z,1.60
2018-06-04T20:36:33.650Z,1.67
2018-06-04T20:39:00.702Z,1.67
2018-06-04T20:41:28.069Z,1.70
2018-06-04T20:43:55.092Z,1.70
2018-06-04T20:46:22.178Z,1.90
2018-06-04T20:48:53.493Z,2.27
2018-06-04T20:51:20.496Z,1.73
2018-06-04T20:53:48.117Z,1.90
2018-06-04T20:56:15.118Z,2.13
2018-06-04T20:58:42.121Z,1.93
2018-06-04T21:01:10.150Z,1.63
2018-06-04T21:03:37.190Z,1.97
2018-06-04T21:06:04.208Z,1.80
2018-06-04T21:08:31.264Z,2.17
2018-06-04T21:10:59.673Z,1.90
2018-06-04T21:13:26.685Z,1.80
2018-06-04T21:15:54.392Z,1.87
2018-06-04T21:21:03.524Z,2.25
2018-06-04T21:26:09.653Z,2.20
2018-06-04T21:28:36.292Z,2.13
2018-06-04T21:31:03.327Z,1.90
2018-06-04T21:33:30.690Z,2.20
2018-06-04T21:35:57.709Z,2.03
2018-06-04T21:38:24.712Z,2.20
2018-06-04T21:40:54.749Z,2.40
2018-06-04T21:43:20.452Z,2.10
2018-06-04T21:45:49.394Z,2.47
2018-06-04T21:48:16.449Z,2.30
2018-06-04T21:50:43.452Z,2.30
2018-06-04T21:53:10.457Z,2.40
2018-06-04T21:55:38.357Z,2.87
2018-06-04T21:58:05.463Z,2.47
2018-06-04T22:00:32.459Z,2.80
2018-06-04T22:02:59.524Z,2.80
2018-06-04T22:05:26.553Z,2.43
2018-06-04T22:07:53.552Z,3.00
2018-06-04T22:10:20.609Z,2.97
2018-06-04T22:12:50.588Z,2.57
2018-06-04T22:15:18.092Z,2.33
2018-06-04T22:17:45.233Z,2.20
2018-06-04T22:20:12.258Z,2.60
2018-06-04T22:22:40.456Z,2.70
2018-06-04T22:25:07.502Z,2.60
2018-06-04T22:27:34.549Z,2.53
2018-06-04T22:30:01.589Z,2.67
2018-06-04T22:32:28.627Z,2.20
2018-06-04T22:34:55.837Z,2.40
2018-06-04T22:37:22.803Z,2.20
2018-06-04T22:39:49.873Z,2.50
2018-06-04T22:44:55.400Z,2.80
2018-06-04T22:47:22.417Z,2.80
2018-06-04T22:49:49.444Z,2.90
2018-06-04T22:52:16.500Z,3.03
2018-06-04T22:54:43.553Z,2.90
2018-06-04T22:57:10.529Z,3.30
2018-06-04T22:59:37.574Z,2.90
2018-06-04T23:02:04.582Z,2.73
2018-06-04T23:04:31.585Z,2.50
2018-06-04T23:06:58.637Z,2.40
2018-06-04T23:09:25.643Z,2.43
2018-06-04T23:11:52.748Z,2.67
2018-06-04T23:14:19.780Z,2.80
2018-06-04T23:16:46.787Z,2.30
2018-06-04T23:19:13.797Z,2.97
2018-06-04T23:21:40.932Z,2.67
2018-06-04T23:24:08.026Z,2.70
2018-06-04T23:26:35.049Z,2.53
2018-06-04T23:29:02.118Z,2.43
2018-06-04T23:31:29.137Z,2.83
2018-06-04T23:33:56.143Z,2.67
2018-06-04T23:36:23.169Z,2.90
2018-06-04T23:38:50.213Z,2.60
2018-06-04T23:41:17.910Z,2.87
2018-06-04T23:43:44.956Z,2.80
2018-06-04T23:46:11.984Z,2.30
2018-06-04T23:48:38.995Z,2.57
2018-06-04T23:51:06.046Z,2.73
2018-06-04T23:53:33.049Z,2.47
2018-06-04T23:56:00.052Z,2.60
2018-06-04T23:58:27.091Z,2.17
